Aérodrome :
LOGIN :

S'inscrire | Disclaimer

   EN    FR    IT 

 










Légende :    VFR   VFR Marginal   IFR   IFR Intensif   IFR Très Intensif
Visi : 
Plafond : 
>= 8 km
>= 3000ft
5 à 8 km
1000 à 3000 ft
1500m à 5 km
500 à 1000 ft
800 à 1500m
200 à 500 ft
< 800m
< 200 ft
Symboles :   Orages  Brouillard  Fortes neiges  Fortes précipitations  Vent > 20 kt
SIGMETs :   Divers  Orages  Givrage  Turbulence  Onde Orograph.  Cendres Volcan.






- Altitude de l'aérodrome : 22 ft
- Code IATA : TUN


DTTA - Tunis Carthage

DERNIER METAR :
  • 300730Z 28012KT 9999 SCT026 13/09 Q1013

METARs EXPIRÉS :
  • 300700Z 24005KT 200V280 9999 SCT026 13/10 Q1013
  • 300600Z 18006KT 9999 SCT026 11/09 Q1013
  • 300530Z 18005KT 9999 SCT026 10/08 Q1013
  • 300500Z 24004KT 180V280 9999 SCT026 10/09 Q1012

TAF TAF DTTA
Valide du 30 à 06h jusqu'au 31 à 06h UTC


300500Z 3006/3106 26008KT 9999 SCT026
BECMG 3010/3012 32012KT
PROB40
TEMPO 3010/3018 RA SCT026TCU FEW030CB
BECMG 3018/3020 24003KT



MET'MAP, la Météo Aéronautique d'un coup d'oeil ! - Copyright ORBIFLY Décembre 2007 - Disclaimer

ORBIFLY MET'MAP TEAM :

Programmation & Développement : Alexandra Zaïnal
Sur une idée originale de : Baudouin d'Aumeries
Assistance à la programmation : Marc-Olivier Méhu
Soutien technique & logistique : Manuel Goepfert

Contact : metmap@orbifly.com




SOURCES & CREDITS :

   NOAA